Latest Weather Observations for Portland Airport

IDV60801

Issued at 11:02 pm EDT Sunday 4 December 2016 (issued every 30 minutes, with the page automatically refreshed every 10 minutes)

About weather observations | Map of weather stations | Latest weather observations for VIC | Other Formats
Station Details ID: 090171 Name: CASHMORE AIRPORT Lat: -38.31 Lon: 141.47 Height: 80.9 m
Data from the previous 72 hours. | See also: Recent months at Portland Airport
Date/Time
EDT
Temp
°C
App
Temp
°C
Dew
Point
°C
Rel
Hum
%
Delta-T
°C
Wind Press
QNH
hPa
Press
MSL
hPa
Rain since
9am
mm
Dir  Spd
km/h
Gust
km/h
Spd
kts
Gust
kts
04/11:00pm 22.1 18.6 15.5 66 4.0 NNW 28 41 15 22 1002.6 1002.5 0.2
04/10:30pm 21.7 18.1 15.3 67 3.8 NNW 28 41 15 22 1002.1 1002.0 0.2
04/10:00pm 21.7 18.6 15.5 68 3.7 N 26 37 14 20 1002.0 1001.9 0.2
04/09:30pm 21.9 18.8 15.5 67 3.8 N 26 37 14 20 1001.7 1001.5 0.2
04/09:00pm 21.8 18.7 15.6 68 3.7 N 26 35 14 19 1001.4 1001.2 0.2
04/08:30pm 22.1 19.6 16.1 69 3.6 N 24 37 13 20 1001.6 1001.4 0.2
04/08:02pm 22.6 19.1 16.4 68 3.8 N 30 48 16 26 1001.8 1001.6 0.2
04/08:00pm 22.6 18.7 16.4 68 3.8 N 32 48 17 26 1001.7 1001.5 0.2
04/07:53pm 22.8 19.3 16.6 68 3.8 N 30 48 16 26 1001.6 1001.4 0.2
04/07:30pm 22.7 20.2 17.2 71 3.4 N 26 39 14 21 1001.8 1001.6 0.2
04/07:00pm 22.7 20.0 17.6 73 3.2 N 28 37 15 20 1001.5 1001.3 0.2
04/06:30pm 21.9 19.1 17.3 75 2.8 N 28 39 15 21 1001.6 1001.4 0.2
04/06:18pm 21.9 19.2 17.5 76 2.7 N 28 52 15 28 1001.6 1001.4 0.2
04/06:00pm 21.0 18.6 17.4 80 2.2 N 26 37 14 20 1001.9 1001.8 0.2
04/05:30pm 20.2 17.9 17.6 85 1.6 N 26 35 14 19 1002.7 1002.6 0.0
04/05:00pm 20.2 17.4 17.2 83 1.8 N 28 39 15 21 1003.7 1003.6 0.0
04/04:30pm 22.0 16.8 16.5 71 3.4 NNW 39 57 21 31 1004.8 1004.7 0.0
04/04:04pm 25.1 20.5 15.1 53 6.0 NW 33 59 18 32 1004.7 1004.6 0.0
04/04:00pm 23.6 19.4 16.1 62 4.6 WNW 33 48 18 26 1004.6 1004.5 0.0
04/03:30pm 25.5 22.4 15.5 54 6.1 NW 26 35 14 19 1004.3 1004.2 0.0
04/03:00pm 23.6 18.9 15.9 62 4.7 WNW 35 56 19 30 1004.8 1004.7 0.0
04/02:52pm 24.6 20.3 14.4 53 6.1 WNW 30 56 16 30 1004.7 1004.6 0.0
04/02:30pm 28.1 22.8 13.2 39 8.8 NW 33 46 18 25 1004.7 1004.6 0.0
04/02:14pm 27.8 24.3 13.3 40 8.6 NW 24 50 13 27 1004.8 1004.7 0.0
04/02:12pm 27.8 24.6 13.0 40 8.7 NNW 22 44 12 24 1004.9 1004.8 0.0
04/02:00pm 25.8 24.7 15.2 52 6.4 N 15 22 8 12 1005.2 1005.1 0.0
04/01:30pm 24.7 23.9 15.1 55 5.8 NNE 13 17 7 9 1005.6 1005.5 0.0
04/01:00pm 22.8 22.0 14.1 58 5.1 NE 11 17 6 9 1005.8 1005.7 0.0
04/12:30pm 21.9 21.2 13.3 58 5.0 NE 9 13 5 7 1006.2 1006.1 0.0
04/12:00pm 22.9 22.1 12.8 53 5.8 ENE 9 13 5 7 1006.3 1006.2 0.0
04/11:30am 22.3 21.8 12.8 55 5.4 NE 7 11 4 6 1006.9 1006.8 0.0
04/11:00am 22.1 20.8 11.2 50 6.1 NNE 9 13 5 7 1007.2 1007.1 0.0
04/10:30am 21.1 20.1 12.3 57 5.0 NNE 9 13 5 7 1007.2 1007.1 0.0
04/10:00am 19.3 17.8 11.8 62 4.2 NNE 11 15 6 8 1007.6 1007.5 0.0
04/09:30am 16.8 15.8 12.3 75 2.5 NE 9 11 5 6 1007.9 1007.8 0.0
04/09:00am 15.2 14.7 12.5 84 1.5 NNE 7 11 4 6 1008.2 1008.1 0.0
04/08:30am 12.6 11.5 10.8 89 0.9 NNE 7 9 4 5 1008.2 1008.1 0.0
04/08:00am 11.9 9.9 10.3 90 0.8 NNE 11 15 6 8 1008.5 1008.4 0.0
04/07:30am 10.5 9.1 8.9 90 0.8 NNE 6 11 3 6 1008.4 1008.3 0.0
04/07:00am 9.6 7.4 8.0 90 0.8 N 9 13 5 7 1008.7 1008.6 0.0
04/06:30am 9.3 7.1 7.7 90 0.8 NNE 9 11 5 6 1008.7 1008.6 0.0
04/06:00am 9.3 7.0 7.6 89 0.8 NNE 9 11 5 6 1008.9 1008.8 0.0
04/05:30am 10.3 7.5 8.6 89 0.8 NE 13 15 7 8 1008.7 1008.6 0.0
04/05:00am 10.9 8.7 9.2 89 0.9 NE 11 17 6 9 1009.0 1008.9 0.0
04/04:30am 11.2 9.4 9.5 89 0.9 ENE 9 15 5 8 1009.3 1009.2 0.0
04/04:00am 11.0 9.2 9.3 89 0.9 ENE 9 15 5 8 1009.5 1009.4 0.0
04/03:30am 10.9 9.1 9.3 90 0.8 ENE 9 13 5 7 1010.1 1010.0 0.0
04/03:00am 10.9 9.4 9.3 90 0.8 ENE 7 11 4 6 1010.1 1010.0 0.0
04/02:30am 10.5 8.9 8.8 89 0.8 ESE 7 9 4 5 1010.2 1010.1 0.0
04/02:00am 10.9 10.7 9.2 89 0.9 CALM 0 0 0 0 1010.7 1010.6 0.0
04/01:30am 10.5 9.0 8.4 87 1.0 ESE 6 9 3 5 1011.6 1011.5 0.0
04/01:00am 10.7 9.0 8.5 86 1.1 E 7 9 4 5 1012.0 1011.9 0.0
04/12:30am 11.2 9.6 8.8 85 1.2 E 7 9 4 5 1012.2 1012.1 0.0
04/12:00am 11.8 10.0 9.4 85 1.2 ESE 9 13 5 7 1012.6 1012.5 0.0
 
Date/Time
EDT
Temp
°C
App
Temp
°C
Dew
Point
°C
Rel
Hum
%
Delta-T
°C
Wind Press
QNH
hPa
Press
MSL
hPa
Rain since
9am
mm
Dir  Spd
km/h
Gust
km/h
Spd
kts
Gust
kts
03/11:30pm 12.0 9.8 9.4 84 1.3 ESE 11 15 6 8 1013.1 1013.0 0.0
03/11:00pm 12.0 10.1 9.0 82 1.5 ESE 9 15 5 8 1013.5 1013.4 0.0
03/10:30pm 11.7 9.7 8.6 81 1.5 ESE 9 11 5 6 1014.0 1013.9 0.0
03/10:00pm 11.7 9.5 8.0 78 1.8 ESE 9 13 5 7 1014.0 1013.9 0.0
03/09:30pm 12.2 10.0 7.7 74 2.2 ESE 9 11 5 6 1014.1 1014.0 0.0
03/09:00pm 12.7 10.1 7.6 71 2.5 ESE 11 15 6 8 1013.9 1013.8 0.0
03/08:30pm 13.7 10.7 7.9 68 2.9 SE 13 20 7 11 1014.1 1014.0 0.0
03/08:00pm 14.7 11.1 8.4 66 3.2 SE 17 24 9 13 1013.9 1013.8 0.0
03/07:30pm 15.0 10.9 7.8 62 3.6 ESE 19 26 10 14 1013.9 1013.8 0.0
03/07:00pm 16.0 12.5 8.7 62 3.7 SE 17 22 9 12 1014.1 1014.0 0.0
03/06:30pm 16.5 13.4 8.7 60 4.0 ESE 15 24 8 13 1014.1 1014.0 0.0
03/06:00pm 16.7 13.4 8.1 57 4.4 SE 15 24 8 13 1014.0 1013.9 0.0
03/05:30pm 17.0 13.7 8.2 56 4.5 ESE 15 22 8 12 1014.0 1013.9 0.0
03/05:00pm 17.7 14.5 8.3 54 4.8 SE 15 20 8 11 1014.3 1014.2 0.0
03/04:30pm 17.9 14.8 9.0 56 4.6 SSE 15 24 8 13 1014.3 1014.2 0.0
03/04:00pm 17.1 13.3 7.5 53 4.8 SSE 17 24 9 13 1014.4 1014.3 0.0
03/03:30pm 18.2 15.1 9.0 55 4.8 ESE 15 22 8 12 1014.5 1014.4 0.0
03/03:00pm 18.7 15.8 9.8 56 4.7 SE 15 24 8 13 1014.5 1014.4 0.0
03/02:30pm 18.3 15.7 9.4 56 4.7 ESE 13 22 7 12 1014.7 1014.6 0.0
03/02:00pm 18.1 15.7 8.7 54 4.9 ESE 11 17 6 9 1014.9 1014.8 0.0
03/01:30pm 17.9 15.0 8.2 53 5.0 ESE 13 20 7 11 1015.1 1015.0 0.0
03/01:00pm 17.2 14.7 6.7 50 5.2 ESE 9 19 5 10 1015.4 1015.3 0.0
03/12:30pm 17.2 14.3 4.5 43 6.0 E 9 17 5 9 1015.7 1015.6 0.0
03/12:00pm 16.8 14.0 5.1 46 5.6 E 9 17 5 9 1016.0 1015.9 0.0
03/11:30am 16.4 13.1 4.8 46 5.5 ESE 11 20 6 11 1016.1 1016.0 0.0
03/11:00am 15.6 12.9 5.5 51 4.8 ENE 9 15 5 8 1016.1 1016.0 0.0
03/10:30am 15.6 12.9 5.5 51 4.8 E 9 15 5 8 1016.5 1016.4 0.0
03/10:00am 15.4 12.5 6.4 55 4.4 E 11 19 6 10 1016.6 1016.5 0.0
03/09:30am 14.8 12.0 5.3 53 4.5 ENE 9 17 5 9 1016.4 1016.3 0.0
03/09:00am 14.3 11.7 6.2 58 3.9 E 9 13 5 7 1016.4 1016.3 0.0
03/08:30am 14.0 12.1 6.6 61 3.6 ENE 6 11 3 6 1016.3 1016.2 0.0
03/08:00am 13.3 13.1 10.5 83 1.5 E 2 7 1 4 1016.2 1016.1 0.0
03/07:30am 9.4 8.9 7.8 90 0.8 CALM 0 0 0 0 1015.8 1015.7 0.0
03/07:00am 6.4 5.3 5.0 91 0.6 CALM 0 0 0 0 1015.7 1015.6 0.0
03/06:30am 5.1 3.7 3.6 90 0.6 CALM 0 0 0 0 1015.4 1015.3 0.0
03/06:00am 4.6 2.7 3.1 90 0.6 NNW 2 6 1 3 1015.3 1015.2 0.0
03/05:30am 4.0 2.4 2.4 89 0.6 CALM 0 0 0 0 1015.0 1014.9 0.0
03/05:00am 4.3 2.3 2.5 88 0.7 NNW 2 6 1 3 1014.9 1014.8 0.0
03/04:30am 5.2 3.4 3.4 88 0.8 N 2 9 1 5 1014.9 1014.8 0.0
03/04:00am 5.1 3.7 3.3 88 0.7 CALM 0 0 0 0 1015.1 1015.0 0.0
03/03:30am 5.2 3.4 3.2 87 0.8 NW 2 7 1 4 1015.1 1015.0 0.0
03/03:00am 5.9 3.2 3.9 87 0.8 NW 7 11 4 6 1015.2 1015.1 0.0
03/02:30am 5.6 3.0 3.3 85 1.0 NNW 6 7 3 4 1015.7 1015.6 0.0
03/02:00am 6.4 3.9 3.9 84 1.1 W 6 7 3 4 1016.0 1015.9 0.0
03/01:30am 6.6 5.2 3.6 81 1.3 CALM 0 0 0 0 1016.2 1016.1 0.0
03/01:00am 7.8 6.6 4.4 79 1.5 CALM 0 0 0 0 1016.4 1016.3 0.0
03/12:30am 8.5 6.6 4.7 77 1.7 W 4 7 2 4 1016.7 1016.6 0.0
03/12:00am 9.4 5.9 5.6 77 1.7 SW 13 17 7 9 1016.6 1016.5 0.0
 
Date/Time
EDT
Temp
°C
App
Temp
°C
Dew
Point
°C
Rel
Hum
%
Delta-T
°C
Wind Press
QNH
hPa
Press
MSL
hPa
Rain since
9am
mm
Dir  Spd
km/h
Gust
km/h
Spd
kts
Gust
kts
02/11:30pm 8.4 5.8 4.4 76 1.8 SW 7 11 4 6 1016.7 1016.6 0.0
02/11:00pm 9.2 6.3 4.8 74 2.0 SW 9 15 5 8 1016.8 1016.7 0.0
02/10:30pm 9.2 6.1 5.4 77 1.7 SW 11 15 6 8 1016.8 1016.7 0.0
02/10:00pm 9.3 6.9 5.1 75 1.9 W 7 9 4 5 1016.7 1016.6 0.0
02/09:30pm 10.5 7.9 5.9 73 2.1 WSW 9 13 5 7 1016.5 1016.4 0.0
02/09:00pm 11.3 8.3 6.0 70 2.5 W 11 13 6 7 1016.3 1016.2 0.0
02/08:30pm 12.6 9.3 6.6 67 2.9 W 13 19 7 10 1016.1 1016.0 0.0
02/08:00pm 13.3 9.4 6.9 65 3.1 W 17 24 9 13 1015.8 1015.7 0.0
02/07:30pm 13.7 9.6 6.3 61 3.6 W 17 24 9 13 1015.5 1015.4 0.0
02/07:00pm 14.6 10.5 6.4 58 4.0 WNW 17 24 9 13 1015.4 1015.3 0.0
02/06:30pm 14.8 10.6 5.9 55 4.3 WNW 17 24 9 13 1015.4 1015.3 0.0
02/06:00pm 14.7 10.1 5.8 55 4.3 WNW 19 26 10 14 1015.3 1015.2 0.0
02/05:30pm 15.1 10.7 5.0 51 4.8 WSW 17 28 9 15 1015.2 1015.1 0.0
02/05:00pm 15.0 10.4 5.5 53 4.5 W 19 30 10 16 1015.2 1015.1 0.0
02/04:30pm 16.0 11.7 7.7 58 4.2 W 20 32 11 17 1015.0 1014.9 0.0
02/04:00pm 15.9 11.6 6.9 55 4.4 W 19 32 10 17 1015.0 1014.9 0.0
02/03:30pm 16.0 11.5 7.0 55 4.5 WSW 20 30 11 16 1014.9 1014.8 0.0
02/03:00pm 15.6 11.2 6.6 55 4.4 WSW 19 30 10 16 1014.8 1014.7 0.0
02/02:30pm 15.6 11.0 5.8 52 4.7 WSW 19 30 10 16 1014.9 1014.8 0.0
02/02:00pm 15.2 10.8 6.7 57 4.2 WSW 19 32 10 17 1014.8 1014.7 0.0
02/01:30pm 15.4 11.0 6.4 55 4.4 WSW 19 30 10 16 1014.6 1014.5 0.0
02/01:00pm 15.2 9.9 4.9 50 4.9 WSW 22 32 12 17 1014.6 1014.5 0.0
02/12:30pm 14.8 9.9 5.3 53 4.5 WSW 20 33 11 18 1014.5 1014.4 0.0
02/12:00pm 15.1 10.2 6.9 58 4.0 WSW 22 32 12 17 1014.3 1014.2 0.0
02/11:30am 14.2 8.9 6.6 60 3.7 WSW 24 33 13 18 1013.9 1013.8 0.0
02/11:00am 14.7 10.5 8.4 66 3.2 WSW 20 35 11 19 1013.8 1013.7 0.0
02/10:30am 15.1 10.4 7.6 61 3.7 WSW 22 33 12 18 1013.5 1013.4 0.0
02/10:00am 14.8 10.1 7.8 63 3.5 WSW 22 32 12 17 1013.2 1013.1 0.0
02/09:30am 14.6 9.4 7.4 62 3.6 WSW 24 33 13 18 1012.8 1012.7 0.0
02/09:00am 13.6 10.0 8.4 71 2.6 SW 17 28 9 15 1012.4 1012.3 0.6
02/08:30am 13.3 9.4 8.6 73 2.4 SW 19 28 10 15 1012.0 1011.9 0.6
02/08:00am 13.4 10.4 9.1 75 2.2 SW 15 20 8 11 1011.5 1011.4 0.4
02/07:30am 12.9 10.5 9.9 82 1.5 WSW 13 19 7 10 1011.1 1011.0 0.4
02/07:00am 12.6 10.6 10.1 85 1.3 WSW 11 13 6 7 1010.5 1010.4 0.4
02/06:30am 12.3 9.9 10.2 87 1.1 WSW 13 17 7 9 1010.1 1010.0 0.4
02/06:00am 12.1 10.1 10.3 89 0.9 SW 11 15 6 8 1009.7 1009.6 0.4
02/05:37am 12.3 10.5 10.7 90 0.8 SW 11 17 6 9 1009.3 1009.2 0.4
02/05:30am 12.3 10.5 10.7 90 0.8 SW 11 17 6 9 1009.1 1009.0 0.4
02/05:00am 12.7 11.0 11.3 91 0.7 SW 11 17 6 9 1008.7 1008.6 0.4
02/04:59am 12.7 11.0 11.3 91 0.7 SW 11 17 6 9 1008.7 1008.6 0.4
02/04:33am 11.1 9.3 9.5 90 0.8 NNW 9 13 5 7 1008.6 1008.5 0.2
02/04:31am 11.1 9.3 9.5 90 0.8 NNW 9 13 5 7 1008.6 1008.5 0.2
02/04:30am 11.0 9.2 9.4 90 0.8 NNW 9 13 5 7 1008.5 1008.4 0.2
02/04:00am 10.9 9.1 9.3 90 0.8 N 9 11 5 6 1008.4 1008.3 0.0
02/03:30am 10.9 9.0 9.2 89 0.9 N 9 11 5 6 1008.4 1008.3 0.0
02/03:00am 10.5 8.5 8.8 89 0.8 NNW 9 11 5 6 1008.5 1008.4 0.0
02/02:30am 9.9 7.0 8.2 89 0.8 N 13 15 7 8 1008.3 1008.2 0.0
02/02:00am 10.1 8.0 8.2 88 0.9 N 9 11 5 6 1008.6 1008.5 0.0
02/01:30am 10.0 7.5 8.1 88 0.9 NNW 11 15 6 8 1008.6 1008.5 0.0
02/01:00am 10.0 7.4 7.9 87 1.0 NNW 11 13 6 7 1008.6 1008.5 0.0
02/12:30am 11.0 8.7 8.9 87 1.0 WNW 11 13 6 7 1008.7 1008.6 0.0
02/12:00am 10.3 8.2 8.2 87 1.0 WNW 9 13 5 7 1008.8 1008.7 0.0
 
Date/Time
EDT
Temp
°C
App
Temp
°C
Dew
Point
°C
Rel
Hum
%
Delta-T
°C
Wind Press
QNH
hPa
Press
MSL
hPa
Rain since
9am
mm
Dir  Spd
km/h
Gust
km/h
Spd
kts
Gust
kts
01/11:30pm 10.2 8.0 8.0 86 1.1 NW 9 11 5 6 1008.8 1008.7 0.0

Other Formats:

Comma delimited format used in spreadsheet applications
http://www.bom.gov.au/fwo/IDV60801/IDV60801.94828.axf

JavaScript Object Notation format (JSON) in row-major order
http://www.bom.gov.au/fwo/IDV60801/IDV60801.94828.json